Time;durP1;ratioP1;P1;durP2;ratioP2;P2;SDS_P1;SDS_P2;PMS_P1;PMS_P2;Temp;Humidity;BMP_temperature;BMP_pressure;BME280_temperature;BME280_humidity;BME280_pressure;Samples;Min_cycle;Max_cycle;Signal;HPM_P1;HPM_P2
2023/03/24 00:00:20;;;;;;;3.60;1.75;;;10.60;99.90;;;;;;6122873;23;20160;-79
2023/03/24 00:02:47;;;;;;;3.72;1.90;;;10.70;99.90;;;;;;6149214;23;20156;-76
2023/03/24 00:05:15;;;;;;;2.25;1.65;;;10.80;99.90;;;;;;6122448;23;20660;-77
2023/03/24 00:07:42;;;;;;;2.03;1.73;;;10.80;99.90;;;;;;6123376;23;20198;-77
2023/03/24 00:10:10;;;;;;;3.55;1.88;;;10.90;93.00;;;;;;6123570;23;20168;-77
2023/03/24 00:12:37;;;;;;;3.22;1.77;;;10.90;92.10;;;;;;6123180;23;20644;-78
2023/03/24 00:15:07;;;;;;;4.20;1.92;;;11.10;70.10;;;;;;6148101;23;20172;-78
2023/03/24 00:17:34;;;;;;;2.65;1.38;;;11.10;65.40;;;;;;6148020;23;20684;-77
2023/03/24 00:20:06;;;;;;;3.05;1.70;;;11.10;67.50;;;;;;6148416;23;20627;-76
2023/03/24 00:22:32;;;;;;;3.00;1.75;;;11.20;55.60;;;;;;6148163;23;20148;-78
2023/03/24 00:24:57;;;;;;;2.47;1.70;;;11.10;62.30;;;;;;6121894;23;20220;-76
2023/03/24 00:27:23;;;;;;;2.35;1.80;;;11.00;69.80;;;;;;6148001;23;20160;-78
2023/03/24 00:29:48;;;;;;;2.17;1.67;;;11.10;50.90;;;;;;6148142;23;20156;-79
2023/03/24 00:32:14;;;;;;;3.90;1.50;;;11.10;56.00;;;;;;6147733;23;20302;-78
2023/03/24 00:34:42;;;;;;;3.08;1.80;;;11.20;37.50;;;;;;6147731;23;20195;-78
2023/03/24 00:37:08;;;;;;;1.80;1.70;;;11.20;37.70;;;;;;6121703;23;20162;-79
2023/03/24 00:39:33;;;;;;;3.30;1.85;;;11.30;23.20;;;;;;6147860;23;20235;-78
2023/03/24 00:42:00;;;;;;;2.65;1.80;;;11.30;21.00;;;;;;6122251;23;20164;-78
2023/03/24 00:44:26;;;;;;;1.75;1.40;;;11.30;18.30;;;;;;6148073;23;20179;-79
2023/03/24 00:46:55;;;;;;;2.40;1.52;;;11.30;13.10;;;;;;6148016;23;20144;-79
2023/03/24 00:49:42;;;;;;;3.80;1.80;;;11.50;6.80;;;;;;6148345;23;20160;-78
2023/03/24 00:52:17;;;;;;;3.42;1.80;;;11.50;6.10;;;;;;6148051;23;20178;-78
2023/03/24 00:54:44;;;;;;;3.42;1.58;;;11.50;2.20;;;;;;6121808;23;20183;-79
2023/03/24 00:57:11;;;;;;;2.92;1.63;;;11.60;2.30;;;;;;6147798;23;20155;-79
2023/03/24 00:59:41;;;;;;;2.10;1.65;;;11.60;2.60;;;;;;6121847;23;20221;-78
2023/03/24 01:02:10;;;;;;;3.50;1.70;;;11.50;4.00;;;;;;6148053;23;20217;-78
2023/03/24 01:04:40;;;;;;;3.55;1.90;;;11.50;4.20;;;;;;6147844;23;20222;-79
2023/03/24 01:07:10;;;;;;;1.77;1.52;;;11.50;7.90;;;;;;6148077;23;20171;-79
2023/03/24 01:09:36;;;;;;;2.13;1.77;;;11.60;11.10;;;;;;6147789;23;20162;-78
2023/03/24 01:12:03;;;;;;;2.83;1.90;;;11.60;13.60;;;;;;6147611;23;20176;-79
2023/03/24 01:14:32;;;;;;;2.40;1.90;;;11.60;16.60;;;;;;6147745;23;20171;-77
2023/03/24 01:16:59;;;;;;;2.60;1.67;;;11.60;21.60;;;;;;6147653;23;20217;-78
2023/03/24 01:19:25;;;;;;;3.47;1.95;;;11.60;21.30;;;;;;6121055;23;20156;-78
2023/03/24 01:21:53;;;;;;;4.00;2.10;;;11.60;32.10;;;;;;6121177;23;20170;-77
2023/03/24 01:24:20;;;;;;;3.05;1.85;;;11.60;28.00;;;;;;6121235;23;20184;-77
2023/03/24 01:26:46;;;;;;;3.80;2.00;;;11.50;39.60;;;;;;6147713;23;20660;-79
2023/03/24 01:29:11;;;;;;;4.65;2.17;;;11.50;51.10;;;;;;6121410;23;20202;-78
2023/03/24 01:31:37;;;;;;;2.92;2.22;;;11.50;64.90;;;;;;6147174;23;20223;-79
2023/03/24 01:34:03;;;;;;;3.05;2.20;;;11.50;86.60;;;;;;6147022;23;20182;-79
2023/03/24 01:36:29;;;;;;;3.90;2.45;;;11.50;82.30;;;;;;6147977;23;20156;-79
2023/03/24 01:38:57;;;;;;;2.90;2.38;;;11.50;93.50;;;;;;6147738;23;20156;-79
2023/03/24 01:41:23;;;;;;;2.20;2.00;;;11.50;93.60;;;;;;6147704;23;20167;-79
2023/03/24 01:43:48;;;;;;;2.78;2.58;;;11.50;99.60;;;;;;6120818;23;20168;-78
2023/03/24 01:46:17;;;;;;;3.00;2.70;;;11.60;94.20;;;;;;6146789;23;20592;-78
2023/03/24 01:48:52;;;;;;;3.00;2.25;;;11.50;99.90;;;;;;6145894;23;20182;-78
2023/03/24 01:51:25;;;;;;;2.80;2.60;;;11.60;99.90;;;;;;6146107;23;20139;-79
2023/03/24 01:53:56;;;;;;;3.40;2.67;;;11.50;99.90;;;;;;6120523;23;20616;-78
2023/03/24 01:56:23;;;;;;;2.78;2.50;;;11.60;99.90;;;;;;6146593;23;20147;-80
2023/03/24 01:58:56;;;;;;;2.83;2.47;;;11.60;99.90;;;;;;6146986;23;20155;-78
2023/03/24 02:01:25;;;;;;;3.33;2.80;;;11.60;99.90;;;;;;6147009;23;20163;-77
2023/03/24 02:03:51;;;;;;;3.83;2.88;;;11.60;99.90;;;;;;6147284;23;20226;-78
2023/03/24 02:06:18;;;;;;;3.03;2.70;;;11.60;99.90;;;;;;6146944;23;20619;-78
2023/03/24 02:09:03;;;;;;;2.70;2.50;;;11.60;99.90;;;;;;6120723;23;20163;-78
2023/03/24 02:11:31;;;;;;;2.72;2.53;;;11.90;99.90;;;;;;6146690;23;20199;-78
2023/03/24 02:13:57;;;;;;;3.08;2.70;;;11.60;99.90;;;;;;6146440;23;20168;-78
2023/03/24 02:16:37;;;;;;;4.18;2.58;;;11.60;99.90;;;;;;6120539;23;20175;-79
2023/03/24 02:19:25;;;;;;;3.17;2.80;;;11.60;99.90;;;;;;6146827;23;20221;-79
2023/03/24 02:22:27;;;;;;;3.00;2.70;;;11.60;99.90;;;;;;6121560;23;20857;-79
2023/03/24 02:25:44;;;;;;;2.85;2.65;;;11.60;99.90;;;;;;6147375;23;20690;-78
2023/03/24 02:28:34;;;;;;;3.33;3.03;;;11.60;99.90;;;;;;6147914;23;20140;-79
2023/03/24 02:31:06;;;;;;;3.33;3.03;;;11.60;99.90;;;;;;6121133;23;20169;-78
2023/03/24 02:33:56;;;;;;;2.78;2.47;;;11.50;99.90;;;;;;6147246;23;20163;-78
2023/03/24 02:36:35;;;;;;;2.90;2.70;;;11.50;99.90;;;;;;6147733;23;20167;-78
2023/03/24 02:39:36;;;;;;;4.05;2.97;;;11.40;99.90;;;;;;6147406;23;20999;-78
2023/03/24 02:42:10;;;;;;;3.00;2.70;;;11.50;99.90;;;;;;6147161;23;20158;-77
2023/03/24 02:45:04;;;;;;;3.38;2.75;;;11.50;99.90;;;;;;6146640;23;20260;-77
2023/03/24 02:47:47;;;;;;;3.58;2.67;;;11.60;99.90;;;;;;6147672;23;20187;-80
2023/03/24 02:50:50;;;;;;;2.92;2.40;;;11.60;99.90;;;;;;6147499;23;20227;-79
2023/03/24 02:53:27;;;;;;;3.00;2.30;;;11.50;99.90;;;;;;6146781;23;20178;-79
2023/03/24 02:55:59;;;;;;;2.42;2.22;;;11.50;99.90;;;;;;6147642;23;20168;-79
2023/03/24 02:58:37;;;;;;;2.67;2.45;;;11.50;99.90;;;;;;6147661;23;20144;-80
2023/03/24 03:01:52;;;;;;;3.22;2.20;;;12.30;99.90;;;;;;6147538;23;20452;-79
2023/03/24 03:04:24;;;;;;;3.88;2.28;;;11.60;99.90;;;;;;6147366;23;20180;-78
2023/03/24 03:06:53;;;;;;;2.60;2.40;;;11.60;99.90;;;;;;6122621;23;20160;-78
2023/03/24 03:09:21;;;;;;;2.72;2.50;;;11.60;99.90;;;;;;6148853;23;20351;-79
2023/03/24 03:11:51;;;;;;;2.42;2.22;;;11.60;99.90;;;;;;6148351;23;20187;-79
2023/03/24 03:14:24;;;;;;;2.35;2.15;;;11.70;99.90;;;;;;6148545;23;20192;-79
2023/03/24 03:16:58;;;;;;;2.10;2.00;;;11.70;99.90;;;;;;6148863;23;20144;-79
2023/03/24 03:19:33;;;;;;;2.45;2.00;;;11.70;99.90;;;;;;6121462;23;20151;-78
2023/03/24 03:22:00;;;;;;;3.20;2.00;;;11.70;99.90;;;;;;6148647;23;20147;-79
2023/03/24 03:24:31;;;;;;;2.67;2.03;;;11.80;99.90;;;;;;6148556;23;20176;-79
2023/03/24 03:27:07;;;;;;;2.20;2.00;;;11.80;99.90;;;;;;6148610;23;20144;-79
2023/03/24 03:29:39;;;;;;;2.53;1.95;;;11.70;99.90;;;;;;6122216;23;20261;-78
2023/03/24 03:32:08;;;;;;;2.17;1.98;;;11.80;99.60;;;;;;6148034;23;20168;-78
2023/03/24 03:34:53;;;;;;;2.42;2.15;;;11.90;98.60;;;;;;6147997;23;20175;-77
2023/03/24 03:37:29;;;;;;;3.05;2.30;;;11.90;99.90;;;;;;6122505;23;20144;-76
2023/03/24 03:40:05;;;;;;;2.85;2.15;;;12.00;94.60;;;;;;6148876;23;20147;-77
2023/03/24 03:42:31;;;;;;;2.60;2.17;;;12.00;91.40;;;;;;6147915;23;20144;-79
2023/03/24 03:44:56;;;;;;;2.55;2.30;;;12.10;89.20;;;;;;6148445;23;20178;-77
2023/03/24 03:47:22;;;;;;;2.33;2.13;;;12.10;83.30;;;;;;6122589;23;20164;-76
2023/03/24 03:49:49;;;;;;;2.38;2.15;;;12.10;73.00;;;;;;6148648;23;20156;-76
2023/03/24 03:52:15;;;;;;;2.78;2.30;;;12.10;76.40;;;;;;6148654;23;20175;-77
2023/03/24 03:54:42;;;;;;;2.85;2.30;;;12.10;74.70;;;;;;6148441;23;20795;-76
2023/03/24 03:57:09;;;;;;;2.53;2.22;;;12.10;86.10;;;;;;6148937;23;20152;-77
2023/03/24 03:59:37;;;;;;;2.55;2.35;;;12.00;87.10;;;;;;6149018;23;20156;-78
2023/03/24 04:02:40;;;;;;;2.63;2.40;;;12.10;90.80;;;;;;6122924;23;20173;-77
2023/03/24 04:05:17;;;;;;;3.00;2.30;;;12.20;84.20;;;;;;6148278;23;20897;-77
2023/03/24 04:08:04;;;;;;;2.60;2.40;;;11.70;82.00;;;;;;6122517;23;20163;-76
2023/03/24 04:10:45;;;;;;;2.60;2.30;;;12.20;85.90;;;;;;6122789;23;20215;-77
2023/03/24 04:13:29;;;;;;;2.50;2.28;;;12.30;93.00;;;;;;6148640;23;20179;-77
2023/03/24 04:16:05;;;;;;;2.47;2.28;;;12.20;94.10;;;;;;6148653;23;20171;-77
2023/03/24 04:18:42;;;;;;;2.33;2.10;;;12.20;98.30;;;;;;6149016;23;20151;-77
2023/03/24 04:21:27;;;;;;;3.28;2.78;;;12.20;99.90;;;;;;6148981;23;20163;-77
2023/03/24 04:24:11;;;;;;;2.78;2.42;;;12.10;99.90;;;;;;6122505;23;20179;-77
2023/03/24 04:27:01;;;;;;;3.50;2.72;;;12.00;99.90;;;;;;6122391;23;20214;-77
2023/03/24 04:29:41;;;;;;;3.17;2.50;;;12.00;99.90;;;;;;6149078;23;20140;-78
2023/03/24 04:32:20;;;;;;;4.18;2.65;;;12.10;99.90;;;;;;6122124;23;20175;-78
2023/03/24 04:34:53;;;;;;;2.60;2.40;;;12.10;99.90;;;;;;6148515;23;20178;-78
2023/03/24 04:37:24;;;;;;;2.70;2.50;;;12.00;99.90;;;;;;6149133;23;20143;-77
2023/03/24 04:39:52;;;;;;;3.28;2.63;;;12.10;99.90;;;;;;6122170;23;20186;-76
2023/03/24 04:42:24;;;;;;;3.40;2.58;;;12.10;99.90;;;;;;6146408;23;20183;-77
2023/03/24 04:44:50;;;;;;;2.90;2.45;;;12.10;99.90;;;;;;6122021;23;20183;-77
2023/03/24 04:47:19;;;;;;;3.10;2.65;;;12.10;99.90;;;;;;6148413;23;20212;-79
2023/03/24 04:49:45;;;;;;;2.90;2.35;;;12.10;99.90;;;;;;6148218;23;20160;-77
2023/03/24 04:52:11;;;;;;;3.40;2.65;;;12.20;99.90;;;;;;6148018;23;20187;-76
2023/03/24 04:54:36;;;;;;;2.70;2.50;;;12.10;99.90;;;;;;6148214;23;20183;-77
2023/03/24 04:57:03;;;;;;;2.72;2.47;;;12.10;99.90;;;;;;6124305;23;20162;-77
2023/03/24 04:59:32;;;;;;;2.67;2.47;;;12.00;99.90;;;;;;6148580;23;20148;-79
2023/03/24 05:02:01;;;;;;;3.75;2.58;;;12.00;99.90;;;;;;6122215;23;20484;-79
2023/03/24 05:04:28;;;;;;;2.65;2.45;;;12.00;99.90;;;;;;6148000;23;20179;-78
2023/03/24 05:06:54;;;;;;;2.78;2.58;;;12.00;99.90;;;;;;6148334;23;20146;-79
2023/03/24 05:09:23;;;;;;;2.33;2.13;;;12.00;99.90;;;;;;6122548;23;20171;-78
2023/03/24 05:11:49;;;;;;;2.72;2.53;;;12.00;99.90;;;;;;6148107;23;20239;-78
2023/03/24 05:14:15;;;;;;;2.67;2.33;;;12.00;99.90;;;;;;6147560;23;20647;-79
2023/03/24 05:16:41;;;;;;;4.20;2.88;;;12.00;99.90;;;;;;6121856;23;20160;-79
2023/03/24 05:19:07;;;;;;;3.35;3.00;;;12.00;99.90;;;;;;6121848;23;20164;-78
2023/03/24 05:21:33;;;;;;;3.00;2.67;;;12.00;99.90;;;;;;6147765;23;20164;-78
2023/03/24 05:23:59;;;;;;;3.35;2.95;;;12.10;99.90;;;;;;6147549;23;20727;-79
2023/03/24 05:26:25;;;;;;;3.58;2.80;;;12.10;99.90;;;;;;6148248;23;20194;-78
2023/03/24 05:28:51;;;;;;;3.30;3.00;;;12.00;99.90;;;;;;6147845;23;20173;-78
2023/03/24 05:31:17;;;;;;;3.20;2.90;;;12.10;99.90;;;;;;6121431;23;20174;-78
2023/03/24 05:33:43;;;;;;;3.63;3.30;;;12.20;99.90;;;;;;6121373;23;20160;-79
2023/03/24 05:36:09;;;;;;;3.60;3.30;;;12.20;99.90;;;;;;6147677;23;20203;-78
2023/03/24 05:38:35;;;;;;;3.78;3.20;;;12.30;99.90;;;;;;6147960;23;20162;-79
2023/03/24 05:41:01;;;;;;;4.55;3.78;;;12.30;99.90;;;;;;6148092;23;20151;-78
2023/03/24 05:43:27;;;;;;;3.60;3.30;;;12.40;99.90;;;;;;6148233;23;20162;-79
2023/03/24 05:45:52;;;;;;;3.38;3.08;;;12.40;99.90;;;;;;6122618;23;20199;-78
2023/03/24 05:48:18;;;;;;;3.53;3.13;;;12.30;99.90;;;;;;6122433;23;20678;-79
2023/03/24 05:50:44;;;;;;;3.53;3.22;;;12.30;99.90;;;;;;6148229;23;20218;-79
2023/03/24 05:53:10;;;;;;;3.60;3.30;;;12.30;99.90;;;;;;6121837;23;20191;-78
2023/03/24 05:55:35;;;;;;;3.60;3.30;;;12.30;99.90;;;;;;6147656;23;20182;-79
2023/03/24 05:58:01;;;;;;;3.85;3.20;;;12.30;99.90;;;;;;6147225;23;20155;-78
2023/03/24 06:00:29;;;;;;;3.50;3.20;;;12.40;99.90;;;;;;6147563;23;20152;-78
2023/03/24 06:02:55;;;;;;;3.60;3.30;;;12.30;99.90;;;;;;6147532;23;20151;-77
2023/03/24 06:05:21;;;;;;;3.60;3.30;;;12.40;99.90;;;;;;6147086;23;20194;-79
2023/03/24 06:07:46;;;;;;;3.40;3.10;;;12.40;99.90;;;;;;6121310;23;20167;-79
2023/03/24 06:10:17;;;;;;;3.63;3.28;;;12.40;99.90;;;;;;6148196;23;20159;-78
2023/03/24 06:12:43;;;;;;;3.55;3.25;;;12.50;99.90;;;;;;6121701;23;20175;-79
2023/03/24 06:15:10;;;;;;;3.63;3.33;;;12.40;99.90;;;;;;6147475;23;20175;-79
2023/03/24 06:17:36;;;;;;;3.33;3.00;;;12.40;99.90;;;;;;6148314;23;20218;-78
2023/03/24 06:20:11;;;;;;;3.78;3.38;;;12.40;99.90;;;;;;6147890;23;20176;-78
2023/03/24 06:22:37;;;;;;;5.40;3.50;;;12.50;99.90;;;;;;6147980;23;20222;-78
2023/03/24 06:25:03;;;;;;;3.97;3.58;;;12.60;95.60;;;;;;6148151;23;20628;-79
2023/03/24 06:27:29;;;;;;;4.70;3.30;;;12.60;96.50;;;;;;6148267;23;20210;-79
2023/03/24 06:29:58;;;;;;;3.45;3.15;;;12.80;99.70;;;;;;6148509;23;20621;-79
2023/03/24 06:32:24;;;;;;;3.90;3.53;;;12.60;99.90;;;;;;6148564;23;20234;-79
2023/03/24 06:34:50;;;;;;;3.53;3.22;;;12.60;99.90;;;;;;6148343;23;20183;-78
2023/03/24 06:37:16;;;;;;;5.10;3.60;;;12.60;99.70;;;;;;6150388;23;20147;-78
2023/03/24 06:39:41;;;;;;;5.28;3.40;;;12.60;99.70;;;;;;6123883;23;20160;-78
2023/03/24 06:42:07;;;;;;;3.70;3.40;;;12.60;97.40;;;;;;6123630;23;20505;-79
2023/03/24 06:44:33;;;;;;;3.35;3.05;;;12.70;93.10;;;;;;6149880;23;20179;-78
2023/03/24 06:46:58;;;;;;;3.78;3.47;;;12.70;91.90;;;;;;6150435;23;20211;-78
2023/03/24 06:49:24;;;;;;;3.72;3.42;;;12.80;90.20;;;;;;6150063;23;20206;-79
2023/03/24 06:51:50;;;;;;;4.18;3.72;;;12.80;85.20;;;;;;6148041;23;20179;-79
2023/03/24 06:54:15;;;;;;;3.05;2.85;;;12.70;86.60;;;;;;6147737;23;20632;-80
2023/03/24 06:56:41;;;;;;;3.40;3.10;;;12.80;74.80;;;;;;6148607;23;20159;-79
2023/03/24 06:59:07;;;;;;;3.67;3.17;;;12.90;70.30;;;;;;6149214;23;20167;-79
2023/03/24 07:01:37;;;;;;;3.53;3.10;;;13.00;68.30;;;;;;6148695;23;20164;-79
2023/03/24 07:04:03;;;;;;;4.13;3.40;;;13.00;62.20;;;;;;6148551;23;20176;-77
2023/03/24 07:06:29;;;;;;;3.15;2.85;;;13.10;49.30;;;;;;6149419;23;20182;-78
2023/03/24 07:08:56;;;;;;;3.45;3.15;;;13.10;41.20;;;;;;6149215;23;20607;-79
2023/03/24 07:11:22;;;;;;;3.10;2.90;;;13.20;44.10;;;;;;6123622;23;20171;-77
2023/03/24 07:13:48;;;;;;;3.65;2.83;;;13.10;44.70;;;;;;6149067;23;20148;-78
2023/03/24 07:16:13;;;;;;;3.03;2.60;;;13.10;43.50;;;;;;6150510;23;20167;-79
2023/03/24 07:18:39;;;;;;;3.10;2.80;;;13.10;33.10;;;;;;6124159;23;20208;-78
2023/03/24 07:21:05;;;;;;;3.03;2.70;;;13.10;38.80;;;;;;6148876;23;20156;-77
2023/03/24 07:23:31;;;;;;;2.83;2.58;;;13.00;42.40;;;;;;6123297;23;20250;-78
2023/03/24 07:25:57;;;;;;;2.97;2.60;;;13.00;39.90;;;;;;6124351;23;20187;-77
2023/03/24 07:28:23;;;;;;;2.58;2.38;;;13.00;59.50;;;;;;6123377;23;20168;-77
2023/03/24 07:30:48;;;;;;;2.65;2.45;;;13.10;38.50;;;;;;6150098;23;20183;-78
2023/03/24 07:33:15;;;;;;;2.67;2.47;;;13.00;37.80;;;;;;6152716;23;20226;-79
2023/03/24 07:35:41;;;;;;;2.70;2.42;;;13.00;40.00;;;;;;6127609;23;20190;-79
2023/03/24 07:38:07;;;;;;;2.95;2.65;;;13.00;44.60;;;;;;6151299;23;20222;-79
2023/03/24 07:40:36;;;;;;;2.95;2.60;;;12.90;86.50;;;;;;6150945;23;20636;-79
2023/03/24 07:43:04;;;;;;;2.90;2.60;;;12.80;91.00;;;;;;6124050;23;20608;-79
2023/03/24 07:45:30;;;;;;;3.33;3.03;;;12.70;99.90;;;;;;6148475;23;20187;-79
2023/03/24 07:48:00;;;;;;;2.67;2.47;;;12.70;97.20;;;;;;6123647;23;20187;-76
2023/03/24 07:50:27;;;;;;;2.75;2.47;;;12.70;78.00;;;;;;6120860;23;20156;-77
2023/03/24 07:52:52;;;;;;;2.40;2.20;;;12.70;59.10;;;;;;6145525;23;20190;-78
2023/03/24 07:55:18;;;;;;;2.33;2.10;;;12.80;40.30;;;;;;6147247;23;20176;-78
2023/03/24 07:57:48;;;;;;;2.30;2.10;;;12.90;21.60;;;;;;6120231;23;20170;-76
2023/03/24 08:00:16;;;;;;;2.03;1.83;;;12.80;18.80;;;;;;6144558;23;20867;-78
2023/03/24 08:02:46;;;;;;;2.00;1.90;;;12.90;20.40;;;;;;6122598;23;20170;-77
2023/03/24 08:05:13;;;;;;;2.38;2.00;;;13.00;19.30;;;;;;6123761;23;20253;-78
2023/03/24 08:07:43;;;;;;;1.90;1.70;;;13.00;15.70;;;;;;6150376;23;20655;-78
2023/03/24 08:10:14;;;;;;;1.48;1.38;;;13.10;6.10;;;;;;6150120;23;20169;-76
2023/03/24 08:12:40;;;;;;;2.53;1.80;;;13.20;5.10;;;;;;6150969;23;20399;-77
2023/03/24 08:15:08;;;;;;;2.33;1.88;;;13.20;7.40;;;;;;6125244;23;20555;-77
2023/03/24 08:17:34;;;;;;;2.03;1.92;;;13.20;12.60;;;;;;6124324;23;20206;-78
2023/03/24 08:20:00;;;;;;;2.58;2.10;;;13.20;1.00;;;;;;6148615;23;20172;-76
2023/03/24 08:22:26;;;;;;;2.17;2.00;;;13.40;1.00;;;;;;6149702;23;20152;-78
2023/03/24 08:24:52;;;;;;;2.75;2.17;;;13.50;1.00;;;;;;6123485;23;20183;-78
2023/03/24 08:27:17;;;;;;;2.53;2.33;;;13.70;1.00;;;;;;6124062;23;20194;-78
2023/03/24 08:29:43;;;;;;;2.95;2.28;;;13.80;1.00;;;;;;6152791;23;20379;-77
2023/03/24 08:32:09;;;;;;;2.63;2.40;;;13.90;1.00;;;;;;6125195;23;20187;-78
2023/03/24 08:34:34;;;;;;;2.63;2.42;;;14.00;1.00;;;;;;6150017;23;20176;-78
2023/03/24 08:37:01;;;;;;;2.50;2.30;;;13.90;1.00;;;;;;6123251;23;20198;-77
2023/03/24 08:39:27;;;;;;;2.35;2.13;;;13.80;1.00;;;;;;6145735;23;20151;-78
2023/03/24 08:41:53;;;;;;;5.97;2.50;;;13.80;1.00;;;;;;6114930;23;20159;-79
2023/03/24 08:44:19;;;;;;;2.00;1.90;;;13.80;1.00;;;;;;6118180;23;20210;-77
2023/03/24 08:46:45;;;;;;;1.90;1.80;;;13.90;1.00;;;;;;6120176;23;20164;-78
2023/03/24 08:49:10;;;;;;;1.90;1.80;;;14.00;1.00;;;;;;6120977;23;20170;-78
2023/03/24 08:51:36;;;;;;;1.98;1.88;;;14.00;1.00;;;;;;6143744;23;20183;-78
2023/03/24 08:54:02;;;;;;;2.20;1.98;;;14.20;1.00;;;;;;6144352;23;20295;-79
2023/03/24 08:56:28;;;;;;;2.28;2.00;;;14.20;1.00;;;;;;6144479;23;20321;-77
2023/03/24 08:58:54;;;;;;;2.65;2.30;;;14.20;1.00;;;;;;6146160;23;20496;-78
2023/03/24 09:01:21;;;;;;;2.00;1.90;;;14.20;1.00;;;;;;6147840;23;20305;-77
2023/03/24 09:03:47;;;;;;;2.17;1.88;;;14.20;1.00;;;;;;6148765;23;20158;-78
2023/03/24 09:06:13;;;;;;;1.98;1.80;;;14.30;1.00;;;;;;6147683;23;20176;-78
2023/03/24 09:08:39;;;;;;;2.67;2.00;;;14.30;1.00;;;;;;6143186;23;20156;-78
2023/03/24 09:11:06;;;;;;;2.05;1.95;;;14.10;1.00;;;;;;6143519;23;20635;-77
2023/03/24 09:13:32;;;;;;;2.15;1.95;;;14.00;1.00;;;;;;6141979;23;20263;-77
2023/03/24 09:16:00;;;;;;;3.20;2.70;;;13.80;1.00;;;;;;6142108;23;20647;-77
2023/03/24 09:18:26;;;;;;;2.97;2.65;;;13.80;1.00;;;;;;6140599;23;20563;-77
2023/03/24 09:20:52;;;;;;;2.67;2.47;;;13.90;1.00;;;;;;6146182;23;20140;-78
2023/03/24 09:23:18;;;;;;;3.03;2.17;;;14.10;1.00;;;;;;6120058;23;20163;-78
2023/03/24 09:25:44;;;;;;;2.72;2.22;;;14.30;1.00;;;;;;6144656;23;20186;-78
2023/03/24 09:28:10;;;;;;;2.97;2.10;;;14.20;1.00;;;;;;6122792;23;20160;-78
2023/03/24 09:30:36;;;;;;;3.25;2.25;;;14.20;1.00;;;;;;6121950;23;20420;-77
2023/03/24 09:33:02;;;;;;;2.90;2.00;;;14.20;1.00;;;;;;6146764;23;20187;-78
2023/03/24 09:35:28;;;;;;;2.00;1.80;;;14.20;1.00;;;;;;6146908;23;20176;-78
2023/03/24 09:37:55;;;;;;;1.70;1.55;;;14.20;1.00;;;;;;6119928;23;20503;-78
2023/03/24 09:40:29;;;;;;;2.60;1.88;;;14.20;1.00;;;;;;6120919;23;20156;-78
2023/03/24 09:43:12;;;;;;;3.13;1.38;;;14.30;1.00;;;;;;6146834;23;20154;-77
2023/03/24 09:45:48;;;;;;;1.77;1.40;;;14.30;1.00;;;;;;6146793;23;20187;-77
2023/03/24 09:48:40;;;;;;;3.47;1.38;;;14.30;1.00;;;;;;6147631;23;20408;-77
2023/03/24 09:51:20;;;;;;;2.88;1.25;;;14.50;1.00;;;;;;6120892;23;20164;-77
2023/03/24 09:54:11;;;;;;;3.05;1.20;;;14.60;1.00;;;;;;6121855;23;20510;-79
2023/03/24 09:56:40;;;;;;;2.97;1.08;;;14.70;1.00;;;;;;6147981;23;20223;-78
2023/03/24 09:59:36;;;;;;;2.05;1.00;;;14.80;1.00;;;;;;6146135;23;20167;-77
2023/03/24 10:02:14;;;;;;;3.42;1.10;;;14.90;1.00;;;;;;6117585;23;20639;-78
2023/03/24 10:04:40;;;;;;;3.22;0.93;;;14.80;1.00;;;;;;6146594;23;20611;-78
2023/03/24 10:07:17;;;;;;;2.30;1.25;;;14.60;1.00;;;;;;6148170;23;20144;-78
2023/03/24 10:09:47;;;;;;;2.22;1.30;;;14.70;1.00;;;;;;6146704;23;20158;-77
2023/03/24 10:12:20;;;;;;;1.92;1.17;;;14.80;1.00;;;;;;6144351;23;20267;-78
2023/03/24 10:15:13;;;;;;;2.88;1.20;;;14.80;1.00;;;;;;6143177;23;20175;-76
2023/03/24 10:18:08;;;;;;;3.72;1.30;;;14.70;1.00;;;;;;6145522;23;20555;-77
2023/03/24 10:20:46;;;;;;;3.13;1.00;;;14.60;1.00;;;;;;6145537;23;20219;-78
2023/03/24 10:23:32;;;;;;;2.47;1.05;;;14.50;1.00;;;;;;6144563;23;20364;-78
2023/03/24 10:26:16;;;;;;;3.78;1.58;;;14.50;1.00;;;;;;6142776;23;20151;-77
2023/03/24 10:28:50;;;;;;;3.65;1.30;;;14.40;1.00;;;;;;6144527;23;20801;-78
2023/03/24 10:31:19;;;;;;;2.28;1.30;;;14.40;1.00;;;;;;6144549;23;20155;-77
2023/03/24 10:33:46;;;;;;;3.90;1.40;;;14.20;1.00;;;;;;6117389;23;20647;-77
2023/03/24 10:36:19;;;;;;;3.05;1.30;;;14.20;1.00;;;;;;6118175;23;20256;-77
2023/03/24 10:38:45;;;;;;;3.80;1.58;;;14.20;1.00;;;;;;6144973;23;20143;-77
2023/03/24 10:41:17;;;;;;;4.40;1.65;;;14.30;1.00;;;;;;6145166;23;20163;-77
2023/03/24 10:43:45;;;;;;;2.72;1.48;;;14.30;1.00;;;;;;6117950;23;20241;-77
2023/03/24 10:46:17;;;;;;;3.13;1.45;;;14.40;1.00;;;;;;6144958;23;20166;-76
2023/03/24 10:48:47;;;;;;;3.33;1.60;;;14.60;1.00;;;;;;6144038;23;20573;-77
2023/03/24 10:51:33;;;;;;;4.28;1.60;;;14.70;1.00;;;;;;6118216;23;20148;-79
2023/03/24 10:54:20;;;;;;;5.28;1.80;;;15.10;1.00;;;;;;6116633;23;20183;-78
2023/03/24 10:56:50;;;;;;;3.50;1.60;;;15.00;1.00;;;;;;6149640;23;20656;-80
2023/03/24 10:59:38;;;;;;;4.97;1.88;;;14.80;1.00;;;;;;6126576;23;20163;-79
2023/03/24 11:02:12;;;;;;;3.53;1.75;;;14.70;1.00;;;;;;6145092;23;20436;-78
2023/03/24 11:04:41;;;;;;;3.47;1.73;;;14.70;1.00;;;;;;6116848;23;20760;-74
2023/03/24 11:07:19;;;;;;;3.60;1.30;;;14.60;1.00;;;;;;6119287;23;20492;-79
2023/03/24 11:10:05;;;;;;;4.03;1.60;;;14.60;1.00;;;;;;6122529;23;20154;-76
2023/03/24 11:12:33;;;;;;;3.53;1.80;;;14.70;1.00;;;;;;6146515;23;20258;-77
2023/03/24 11:15:16;;;;;;;7.13;1.83;;;14.80;1.00;;;;;;6147396;23;20171;-76
2023/03/24 11:17:42;;;;;;;3.20;1.30;;;14.80;1.00;;;;;;6124667;23;20235;-78
2023/03/24 11:20:32;;;;;;;4.40;1.98;;;14.90;1.00;;;;;;6149500;23;20148;-76
2023/03/24 11:23:00;;;;;;;6.05;1.63;;;14.80;1.00;;;;;;6148452;23;20160;-75
2023/03/24 11:25:32;;;;;;;3.95;1.48;;;14.70;1.00;;;;;;6121075;23;20194;-77
2023/03/24 11:28:10;;;;;;;5.43;1.50;;;14.60;1.00;;;;;;6147286;23;20145;-77
2023/03/24 11:30:46;;;;;;;2.78;1.30;;;14.50;1.00;;;;;;6146838;23;20647;-78
2023/03/24 11:33:22;;;;;;;3.67;1.42;;;14.50;1.00;;;;;;6147189;23;20183;-78
2023/03/24 11:35:48;;;;;;;3.58;1.60;;;14.50;1.00;;;;;;6148260;23;20258;-78
2023/03/24 11:38:18;;;;;;;5.50;1.75;;;14.80;1.00;;;;;;6148219;23;20547;-78
2023/03/24 11:40:57;;;;;;;4.05;1.45;;;14.70;1.00;;;;;;6122298;23;20873;-77
2023/03/24 11:43:24;;;;;;;4.40;1.40;;;14.80;1.00;;;;;;6122689;23;20167;-78
2023/03/24 11:46:12;;;;;;;2.50;1.63;;;14.80;1.00;;;;;;6148634;23;20568;-78
2023/03/24 11:48:47;;;;;;;2.67;1.55;;;14.90;1.00;;;;;;6148798;23;20479;-78
2023/03/24 11:51:22;;;;;;;3.70;1.65;;;14.80;1.00;;;;;;6149035;23;20287;-79
2023/03/24 11:53:51;;;;;;;4.32;1.85;;;14.60;1.00;;;;;;6152125;23;20142;-78
2023/03/24 11:56:25;;;;;;;4.30;2.22;;;14.50;1.00;;;;;;6150181;23;20152;-77
2023/03/24 11:59:18;;;;;;;4.07;1.80;;;14.60;1.00;;;;;;6149711;23;20486;-78
2023/03/24 12:01:51;;;;;;;4.03;1.63;;;14.70;1.00;;;;;;6149132;23;20144;-78
2023/03/24 12:04:42;;;;;;;4.15;1.60;;;15.00;1.00;;;;;;6148729;23;20191;-79
2023/03/24 12:07:07;;;;;;;2.72;1.85;;;15.30;1.00;;;;;;6122099;23;20167;-79
2023/03/24 12:10:17;;;;;;;6.18;1.85;;;15.60;1.00;;;;;;6148278;23;20166;-77
2023/03/24 12:13:15;;;;;;;3.33;1.83;;;15.30;1.00;;;;;;6068353;23;20706;-78
2023/03/24 12:16:35;;;;;;;6.40;2.15;;;15.00;1.00;;;;;;6149533;23;20175;-78
2023/03/24 12:19:24;;;;;;;8.20;1.88;;;14.60;1.00;;;;;;6026410;23;20170;-79
2023/03/24 12:21:56;;;;;;;3.80;1.80;;;14.50;1.00;;;;;;6140494;23;21003;-77
2023/03/24 12:24:46;;;;;;;3.72;1.73;;;14.50;1.00;;;;;;6145002;23;20171;-78
2023/03/24 12:27:41;;;;;;;4.15;1.63;;;14.40;1.00;;;;;;6144985;23;20144;-80
2023/03/24 12:30:30;;;;;;;3.92;1.73;;;14.50;1.00;;;;;;6130743;23;20166;-78
2023/03/24 12:33:16;;;;;;;2.85;1.58;;;14.70;1.00;;;;;;6119202;23;20183;-78
2023/03/24 12:35:57;;;;;;;4.25;1.65;;;14.60;1.00;;;;;;6145436;23;20178;-79
2023/03/24 12:38:33;;;;;;;5.63;1.95;;;14.50;1.00;;;;;;6144675;23;20148;-80
2023/03/24 12:41:19;;;;;;;4.70;2.05;;;14.60;1.00;;;;;;6147041;23;20140;-78
2023/03/24 12:44:05;;;;;;;4.30;2.53;;;14.80;1.00;;;;;;6117165;23;20151;-78
2023/03/24 12:46:51;;;;;;;5.05;2.67;;;14.70;1.00;;;;;;6143783;23;20230;-77
2023/03/24 12:49:41;;;;;;;6.18;2.50;;;14.40;1.00;;;;;;6142458;23;20496;-79
2023/03/24 12:52:30;;;;;;;4.75;2.30;;;14.30;1.00;;;;;;6119815;23;20223;-80
2023/03/24 12:55:05;;;;;;;3.45;2.15;;;14.30;1.00;;;;;;6145604;23;20563;-78
2023/03/24 12:57:57;;;;;;;4.93;2.30;;;14.40;1.00;;;;;;6147017;23;20230;-78
2023/03/24 13:00:30;;;;;;;4.85;2.60;;;14.50;1.00;;;;;;6129629;23;20155;-78
2023/03/24 13:03:00;;;;;;;7.00;3.25;;;14.60;1.00;;;;;;6145311;23;20187;-78
2023/03/24 13:05:36;;;;;;;8.45;3.20;;;14.50;1.00;;;;;;6143344;23;20238;-79
2023/03/24 13:08:09;;;;;;;5.85;3.00;;;14.30;1.00;;;;;;6119145;23;20250;-78
2023/03/24 13:10:39;;;;;;;5.25;2.80;;;14.50;1.00;;;;;;6146732;23;20155;-79
2023/03/24 13:13:23;;;;;;;4.07;2.50;;;14.70;1.00;;;;;;6146222;23;20612;-78
2023/03/24 13:16:00;;;;;;;5.20;2.50;;;14.90;1.00;;;;;;6145849;23;20171;-78